createdAt,value
2019-04-13T00:01:28.002Z,4.90
2019-04-13T00:03:57.370Z,5.00
2019-04-13T00:06:34.642Z,4.80
2019-04-13T00:09:06.527Z,4.80
2019-04-13T00:11:37.530Z,5.10
2019-04-13T00:14:06.902Z,4.60
2019-04-13T00:16:36.281Z,4.60
2019-04-13T00:19:05.644Z,4.60
2019-04-13T00:21:35.018Z,4.50
2019-04-13T00:24:04.394Z,4.50
2019-04-13T00:26:33.769Z,4.40
2019-04-13T00:29:03.776Z,4.40
2019-04-13T00:31:33.175Z,4.30
2019-04-13T00:34:02.584Z,4.30
2019-04-13T00:36:31.960Z,4.20
2019-04-13T00:39:01.339Z,4.20
2019-04-13T00:41:30.698Z,4.10
2019-04-13T00:44:00.076Z,4.10
2019-04-13T00:46:29.444Z,4.10
2019-04-13T00:48:58.812Z,4.00
2019-04-13T00:51:28.192Z,4.00
2019-04-13T00:53:57.550Z,4.00
2019-04-13T00:56:27.152Z,3.90
2019-04-13T00:58:56.526Z,3.90
2019-04-13T01:01:25.891Z,3.80
2019-04-13T01:03:56.486Z,3.80
2019-04-13T01:06:26.549Z,3.80
2019-04-13T01:08:56.816Z,3.70
2019-04-13T01:11:26.183Z,3.70
2019-04-13T01:13:55.551Z,3.70
2019-04-13T01:16:24.927Z,3.70
2019-04-13T01:18:56.901Z,3.60
2019-04-13T01:21:25.395Z,3.60
2019-04-13T01:24:14.122Z,3.60
2019-04-13T01:26:43.483Z,3.60
2019-04-13T01:29:12.880Z,3.60
2019-04-13T01:31:42.240Z,3.50
2019-04-13T01:34:11.619Z,3.50
2019-04-13T01:36:40.996Z,3.50
2019-04-13T01:39:10.378Z,3.50
2019-04-13T01:41:39.747Z,3.50
2019-04-13T01:44:09.121Z,3.50
2019-04-13T01:46:38.483Z,3.50
2019-04-13T01:49:07.866Z,3.50
2019-04-13T01:51:37.222Z,3.50
2019-04-13T01:54:06.938Z,3.50
2019-04-13T01:56:36.296Z,3.50
2019-04-13T01:59:05.784Z,3.50
2019-04-13T02:01:36.797Z,3.60
2019-04-13T02:04:07.810Z,3.60
2019-04-13T02:06:38.823Z,3.60
2019-04-13T02:09:19.189Z,3.60
2019-04-13T02:11:48.557Z,3.60
2019-04-13T02:14:17.931Z,3.70
2019-04-13T02:16:47.298Z,3.70
2019-04-13T02:19:16.933Z,3.70
2019-04-13T02:21:46.296Z,3.70
2019-04-13T02:24:15.692Z,3.70
2019-04-13T02:26:45.058Z,3.70
2019-04-13T02:29:14.420Z,3.60
2019-04-13T02:31:44.325Z,3.60
2019-04-13T02:34:14.335Z,3.60
2019-04-13T02:36:44.432Z,3.60
2019-04-13T02:39:14.831Z,3.50
2019-04-13T02:41:44.387Z,3.50
2019-04-13T02:44:13.760Z,3.50
2019-04-13T02:46:43.152Z,3.50
2019-04-13T02:49:12.522Z,3.50
2019-04-13T02:51:41.906Z,3.40
2019-04-13T02:54:11.282Z,3.40
2019-04-13T02:56:40.930Z,3.40
2019-04-13T02:59:10.291Z,3.30
2019-04-13T03:01:39.674Z,3.30
2019-04-13T03:04:09.407Z,3.20
2019-04-13T03:06:38.866Z,3.20
2019-04-13T03:09:08.892Z,3.20
2019-04-13T03:11:39.087Z,3.20
2019-04-13T03:14:08.441Z,3.20
2019-04-13T03:16:54.679Z,3.20
2019-04-13T03:19:25.700Z,3.20
2019-04-13T03:21:55.093Z,3.20
2019-04-13T03:24:24.480Z,3.20
2019-04-13T03:26:53.811Z,3.20
2019-04-13T03:29:23.182Z,3.20
2019-04-13T03:31:52.556Z,3.20
2019-04-13T03:34:41.595Z,3.20
2019-04-13T03:37:11.050Z,3.20
2019-04-13T03:39:40.425Z,3.20
2019-04-13T03:42:09.795Z,3.20
2019-04-13T03:44:39.162Z,3.20
2019-04-13T03:47:08.805Z,3.20
2019-04-13T03:49:38.169Z,3.10
2019-04-13T03:52:07.819Z,3.10
2019-04-13T03:54:37.188Z,3.10
2019-04-13T03:57:06.574Z,3.10
2019-04-13T03:59:35.939Z,3.10
2019-04-13T04:02:05.594Z,3.10
2019-04-13T04:04:34.958Z,3.00
2019-04-13T04:07:04.339Z,3.00
2019-04-13T04:09:33.703Z,3.00
2019-04-13T04:12:03.076Z,3.00
2019-04-13T04:14:32.447Z,3.00
2019-04-13T04:17:01.817Z,3.00
2019-04-13T04:19:31.206Z,2.90
2019-04-13T04:22:00.584Z,2.90
2019-04-13T04:24:29.963Z,2.90
2019-04-13T04:26:59.351Z,2.90
2019-04-13T04:29:28.714Z,2.90
2019-04-13T04:31:58.089Z,2.90
2019-04-13T04:34:27.465Z,2.80
2019-04-13T04:36:57.081Z,2.90
2019-04-13T04:39:26.769Z,2.80
2019-04-13T04:41:56.127Z,2.90
2019-04-13T04:44:25.775Z,2.80
2019-04-13T04:46:55.380Z,2.90
2019-04-13T04:49:24.767Z,2.90
2019-04-13T04:51:54.140Z,2.90
2019-04-13T04:54:23.754Z,2.90
2019-04-13T04:56:53.213Z,2.90
2019-04-13T04:59:22.573Z,2.90
2019-04-13T05:01:52.206Z,2.90
2019-04-13T05:04:21.591Z,2.90
2019-04-13T05:06:50.956Z,2.90
2019-04-13T05:09:20.349Z,2.90
2019-04-13T05:11:49.709Z,2.90
2019-04-13T05:14:19.468Z,2.90
2019-04-13T05:16:48.849Z,2.90
2019-04-13T05:19:18.226Z,2.90
2019-04-13T05:21:47.592Z,2.90
2019-04-13T05:24:16.978Z,2.90
2019-04-13T05:26:46.340Z,2.90
2019-04-13T05:29:15.722Z,2.90
2019-04-13T05:31:45.084Z,2.90
2019-04-13T05:34:14.455Z,2.90
2019-04-13T05:36:47.739Z,2.90
2019-04-13T05:39:14.932Z,2.90
2019-04-13T05:41:44.619Z,2.90
2019-04-13T05:44:13.984Z,2.90
2019-04-13T05:46:43.690Z,3.00
2019-04-13T05:49:13.067Z,3.00
2019-04-13T05:51:42.433Z,3.00
2019-04-13T05:54:11.825Z,3.10
2019-04-13T05:56:41.280Z,3.10
2019-04-13T05:59:10.654Z,3.20
2019-04-13T06:01:40.020Z,3.20
2019-04-13T06:04:09.400Z,3.20
2019-04-13T06:06:38.760Z,3.30
2019-04-13T06:09:08.777Z,3.40
2019-04-13T06:11:38.886Z,3.50
2019-04-13T06:14:08.251Z,3.50
2019-04-13T06:16:40.318Z,3.60
2019-04-13T06:19:08.741Z,3.70
2019-04-13T06:21:40.420Z,3.80
2019-04-13T06:24:09.493Z,3.90
2019-04-13T06:26:41.074Z,4.00
2019-04-13T06:29:09.971Z,4.10
2019-04-13T06:31:40.982Z,4.20
2019-04-13T06:34:24.230Z,4.30
2019-04-13T06:36:53.597Z,4.40
2019-04-13T06:39:22.987Z,4.50
2019-04-13T06:41:52.358Z,4.50
2019-04-13T06:44:21.733Z,4.50
2019-04-13T06:46:51.364Z,4.50
2019-04-13T06:49:23.333Z,4.60
2019-04-13T06:51:51.871Z,4.60
2019-04-13T06:54:21.308Z,4.60
2019-04-13T06:56:50.800Z,4.70
2019-04-13T06:59:20.899Z,4.70
2019-04-13T07:01:50.270Z,4.80
2019-04-13T07:04:19.647Z,4.80
2019-04-13T07:06:51.102Z,4.90
2019-04-13T07:09:26.221Z,5.00
2019-04-13T07:11:56.289Z,5.00
2019-04-13T07:14:26.268Z,5.10
2019-04-13T07:16:59.916Z,5.10
2019-04-13T07:19:29.664Z,5.20
2019-04-13T07:21:59.343Z,5.20
2019-04-13T07:24:29.460Z,5.20
2019-04-13T07:26:58.908Z,5.30
2019-04-13T07:29:28.285Z,5.30
2019-04-13T07:32:01.420Z,5.30
2019-04-13T07:34:28.773Z,5.30
2019-04-13T07:36:58.161Z,5.40
2019-04-13T07:39:27.542Z,5.40
2019-04-13T07:41:56.914Z,5.50
2019-04-13T07:44:30.430Z,5.50
2019-04-13T07:47:01.447Z,5.40
2019-04-13T07:49:41.322Z,5.40
2019-04-13T07:52:15.440Z,5.40
2019-04-13T07:54:45.396Z,5.40
2019-04-13T07:57:15.676Z,5.30
2019-04-13T07:59:45.389Z,5.30
2019-04-13T08:02:15.854Z,5.40
2019-04-13T08:04:45.399Z,5.40
2019-04-13T08:07:14.787Z,5.40
2019-04-13T08:09:44.165Z,5.40
2019-04-13T08:12:16.695Z,5.50
2019-04-13T08:14:44.737Z,5.50
2019-04-13T08:17:15.751Z,5.50
2019-04-13T08:19:46.757Z,5.60
2019-04-13T08:22:16.208Z,5.60
2019-04-13T08:24:48.328Z,5.70
2019-04-13T08:27:17.749Z,5.70
2019-04-13T08:29:47.131Z,5.80
2019-04-13T08:32:16.510Z,5.80
2019-04-13T08:34:45.882Z,5.90
2019-04-13T08:37:15.259Z,6.00
2019-04-13T08:39:44.644Z,6.10
2019-04-13T08:42:19.865Z,6.10
2019-04-13T08:44:45.120Z,6.20
2019-04-13T08:47:33.840Z,6.20
2019-04-13T08:50:03.380Z,6.30
2019-04-13T08:52:32.754Z,6.30
2019-04-13T08:55:02.119Z,6.30
2019-04-13T08:57:31.843Z,6.40
2019-04-13T09:00:01.312Z,6.40
2019-04-13T09:02:31.331Z,6.40
2019-04-13T09:05:04.288Z,6.40
2019-04-13T09:07:32.563Z,6.50
2019-04-13T09:10:02.933Z,6.50
2019-04-13T09:12:32.492Z,6.50
2019-04-13T09:15:02.169Z,6.60
2019-04-13T09:17:34.531Z,6.60
2019-04-13T09:20:07.890Z,6.70
2019-04-13T09:22:37.769Z,6.70
2019-04-13T09:25:07.262Z,6.70
2019-04-13T09:27:40.323Z,6.70
2019-04-13T09:30:07.862Z,6.80
2019-04-13T09:32:37.224Z,6.80
2019-04-13T09:35:06.675Z,6.90
2019-04-13T09:37:36.039Z,7.00
2019-04-13T09:40:07.134Z,7.20
2019-04-13T09:42:36.569Z,7.30
2019-04-13T09:45:06.823Z,7.40
2019-04-13T09:47:36.193Z,7.50
2019-04-13T09:50:06.512Z,7.70
2019-04-13T09:52:35.890Z,7.80
2019-04-13T09:55:06.376Z,7.90
2019-04-13T09:57:35.918Z,8.00
2019-04-13T10:00:07.810Z,8.10
2019-04-13T10:02:37.726Z,8.00
2019-04-13T10:05:08.119Z,8.00
2019-04-13T10:07:41.268Z,7.90
2019-04-13T10:10:12.484Z,7.90
2019-04-13T10:12:58.174Z,7.80
2019-04-13T10:15:29.560Z,7.80
2019-04-13T10:18:06.782Z,7.80
2019-04-13T10:20:36.167Z,7.90
2019-04-13T10:23:05.679Z,7.80
2019-04-13T10:25:38.178Z,7.90
2019-04-13T10:28:06.157Z,8.00
2019-04-13T10:30:35.546Z,8.10
2019-04-13T10:33:04.916Z,8.20
2019-04-13T10:35:34.654Z,8.30
2019-04-13T10:38:04.047Z,8.40
2019-04-13T10:40:33.432Z,8.50
2019-04-13T10:43:02.799Z,8.60
2019-04-13T10:45:33.827Z,8.80
2019-04-13T10:48:04.829Z,8.90
2019-04-13T10:50:41.596Z,8.90
2019-04-13T10:53:10.966Z,8.80
2019-04-13T10:55:40.341Z,8.80
2019-04-13T10:58:09.729Z,8.70
2019-04-13T11:00:39.091Z,8.70
2019-04-13T11:03:08.462Z,8.60
2019-04-13T11:05:37.825Z,8.60
2019-04-13T11:08:07.209Z,8.50
2019-04-13T11:10:36.572Z,8.40
2019-04-13T11:13:05.964Z,8.30
2019-04-13T11:15:35.719Z,8.20
2019-04-13T11:18:05.167Z,8.20
2019-04-13T11:20:34.543Z,8.30
2019-04-13T11:23:04.240Z,8.40
2019-04-13T11:25:33.965Z,8.40
2019-04-13T11:28:07.367Z,8.50
2019-04-13T11:30:34.797Z,8.60
2019-04-13T11:33:04.180Z,8.70
2019-04-13T11:35:35.705Z,8.80
2019-04-13T11:38:04.744Z,9.00
2019-04-13T11:40:34.095Z,9.10
2019-04-13T11:43:05.357Z,9.20
2019-04-13T11:45:52.293Z,9.30
2019-04-13T11:48:28.728Z,9.30
2019-04-13T11:51:02.979Z,9.30
2019-04-13T11:53:32.352Z,9.20
2019-04-13T11:56:02.370Z,9.10
2019-04-13T11:58:33.139Z,9.00
2019-04-13T12:01:06.524Z,9.00
2019-04-13T12:03:53.479Z,9.00
2019-04-13T12:06:40.600Z,9.00
2019-04-13T12:09:14.428Z,9.00
2019-04-13T12:11:54.933Z,8.90
2019-04-13T12:14:24.138Z,8.90
2019-04-13T12:16:58.382Z,8.80
2019-04-13T12:19:29.388Z,8.90
2019-04-13T12:22:10.199Z,8.90
2019-04-13T12:24:39.586Z,9.00
2019-04-13T12:27:09.025Z,9.00
2019-04-13T12:29:39.150Z,9.10
2019-04-13T12:32:10.998Z,9.10
2019-04-13T12:34:40.623Z,9.20
2019-04-13T12:37:10.015Z,9.20
2019-04-13T12:39:40.254Z,9.30
2019-04-13T12:42:09.956Z,9.40
2019-04-13T12:44:39.365Z,9.50
2019-04-13T12:47:10.442Z,9.60
2019-04-13T12:49:39.805Z,9.70
2019-04-13T12:52:09.185Z,9.80
2019-04-13T12:54:38.624Z,9.90
2019-04-13T12:57:07.997Z,9.80
2019-04-13T12:59:37.665Z,9.70
2019-04-13T13:02:08.738Z,9.60
2019-04-13T13:04:42.173Z,9.40
2019-04-13T13:07:11.534Z,9.30
2019-04-13T13:09:42.434Z,9.20
2019-04-13T13:12:14.560Z,9.00
2019-04-13T13:14:43.979Z,8.90
2019-04-13T13:17:13.354Z,8.90
2019-04-13T13:19:45.249Z,8.80
2019-04-13T13:22:15.905Z,8.70
2019-04-13T13:24:45.006Z,8.60
2019-04-13T13:27:14.376Z,8.50
2019-04-13T13:29:44.009Z,8.40
2019-04-13T13:32:15.408Z,8.40
2019-04-13T13:34:44.506Z,8.30
2019-04-13T13:37:13.879Z,8.30
2019-04-13T13:39:45.010Z,8.30
2019-04-13T13:42:14.435Z,8.40
2019-04-13T13:44:43.800Z,8.50
2019-04-13T13:47:13.178Z,8.70
2019-04-13T13:49:42.559Z,8.90
2019-04-13T13:52:12.351Z,9.10
2019-04-13T13:54:41.715Z,9.20
2019-04-13T13:57:11.094Z,9.40
2019-04-13T13:59:40.467Z,9.60
2019-04-13T14:02:13.150Z,9.80
2019-04-13T14:04:42.646Z,9.90
2019-04-13T14:07:12.026Z,10.00
2019-04-13T14:09:43.037Z,10.00
2019-04-13T14:12:12.436Z,10.00
2019-04-13T14:14:41.973Z,9.90
2019-04-13T14:17:11.363Z,9.80
2019-04-13T14:19:40.725Z,9.70
2019-04-13T14:22:10.385Z,9.70
2019-04-13T14:24:39.763Z,9.60
2019-04-13T14:27:09.146Z,9.60
2019-04-13T14:29:38.502Z,9.50
2019-04-13T14:32:07.890Z,9.40
2019-04-13T14:34:37.251Z,9.30
2019-04-13T14:37:06.621Z,9.20
2019-04-13T14:39:35.985Z,9.10
2019-04-13T14:42:05.529Z,9.00
2019-04-13T14:44:34.910Z,8.90
2019-04-13T14:47:04.460Z,8.90
2019-04-13T14:49:33.928Z,8.90
2019-04-13T14:52:03.601Z,8.90
2019-04-13T14:54:32.967Z,8.90
2019-04-13T14:57:04.721Z,9.00
2019-04-13T14:59:33.520Z,9.10
2019-04-13T15:02:02.877Z,9.10
2019-04-13T15:04:32.248Z,9.10
2019-04-13T15:07:01.621Z,9.20
2019-04-13T15:09:30.997Z,9.20
2019-04-13T15:12:00.369Z,9.30
2019-04-13T15:14:31.067Z,9.50
2019-04-13T15:17:04.512Z,9.50
2019-04-13T15:19:40.781Z,9.50
2019-04-13T15:22:03.626Z,9.50
2019-04-13T15:24:33.088Z,9.40
2019-04-13T15:27:07.333Z,9.30
2019-04-13T15:29:36.462Z,9.10
2019-04-13T15:32:06.414Z,8.80
2019-04-13T15:34:38.921Z,8.50
2019-04-13T15:37:09.818Z,8.30
2019-04-13T15:39:42.742Z,8.00
2019-04-13T15:42:15.709Z,7.80
2019-04-13T15:44:40.999Z,7.60
2019-04-13T15:47:15.150Z,7.40
2019-04-13T15:49:42.447Z,7.30
2019-04-13T15:52:12.231Z,7.20
2019-04-13T15:54:41.616Z,7.10
2019-04-13T15:57:11.983Z,7.00
2019-04-13T15:59:42.068Z,6.90
2019-04-13T16:02:12.210Z,6.90
2019-04-13T16:04:44.443Z,6.80
2019-04-13T16:07:13.816Z,6.80
2019-04-13T16:10:00.065Z,6.80
2019-04-13T16:12:31.969Z,6.80
2019-04-13T16:15:01.472Z,6.80
2019-04-13T16:17:31.682Z,6.80
2019-04-13T16:20:01.382Z,6.80
2019-04-13T16:22:31.910Z,6.80
2019-04-13T16:25:01.404Z,6.80
2019-04-13T16:27:33.827Z,6.90
2019-04-13T16:30:06.476Z,6.90
2019-04-13T16:32:38.339Z,6.90
2019-04-13T16:35:22.217Z,6.90
2019-04-13T16:37:52.700Z,7.00
2019-04-13T16:40:22.812Z,7.10
2019-04-13T16:42:52.935Z,7.20
2019-04-13T16:45:42.569Z,7.30
2019-04-13T16:48:29.500Z,7.40
2019-04-13T16:51:21.473Z,7.50
2019-04-13T16:54:00.127Z,7.60
2019-04-13T16:56:29.839Z,7.70
2019-04-13T16:59:07.323Z,7.80
2019-04-13T17:01:44.010Z,7.90
2019-04-13T17:04:31.129Z,8.00
2019-04-13T17:07:01.243Z,8.10
2019-04-13T17:09:31.434Z,8.10
2019-04-13T17:12:15.083Z,8.10
2019-04-13T17:14:32.008Z,8.10
2019-04-13T17:17:04.209Z,8.10
2019-04-13T17:19:36.360Z,8.10
2019-04-13T17:22:08.927Z,8.10
2019-04-13T17:24:40.301Z,8.00
2019-04-13T17:27:23.686Z,8.00
2019-04-13T17:30:04.351Z,7.90
2019-04-13T17:32:43.233Z,7.90
2019-04-13T17:35:15.621Z,7.80
2019-04-13T17:37:46.188Z,7.80
2019-04-13T17:40:17.676Z,7.80
2019-04-13T17:43:04.109Z,7.70
2019-04-13T17:45:35.192Z,7.70
2019-04-13T17:48:10.439Z,7.70
2019-04-13T17:50:58.203Z,7.70
2019-04-13T17:53:45.220Z,7.60
2019-04-13T17:56:17.621Z,7.60
2019-04-13T17:58:48.704Z,7.50
2019-04-13T18:01:35.546Z,7.50
2019-04-13T18:04:23.105Z,7.40
2019-04-13T18:06:56.995Z,7.40
2019-04-13T18:09:28.671Z,7.30
2019-04-13T18:12:05.789Z,7.20
2019-04-13T18:14:38.135Z,7.10
2019-04-13T18:17:09.498Z,7.10
2019-04-13T18:19:39.898Z,7.10
2019-04-13T18:22:10.054Z,7.00
2019-04-13T18:24:40.599Z,6.90
2019-04-13T18:27:10.915Z,6.90
2019-04-13T18:29:40.672Z,6.90
2019-04-13T18:32:10.936Z,6.80
2019-04-13T18:34:41.142Z,6.80
2019-04-13T18:37:11.624Z,6.80
2019-04-13T18:39:41.973Z,6.70
2019-04-13T18:42:11.529Z,6.70
2019-04-13T18:44:40.928Z,6.70
2019-04-13T18:47:11.243Z,6.60
2019-04-13T18:49:41.637Z,6.60
2019-04-13T18:52:11.532Z,6.50
2019-04-13T18:54:41.243Z,6.50
2019-04-13T18:57:11.184Z,6.40
2019-04-13T18:59:40.686Z,6.30
2019-04-13T19:02:10.364Z,6.20
2019-04-13T19:04:39.826Z,6.10
2019-04-13T19:07:09.264Z,6.00
2019-04-13T19:09:38.647Z,5.90
2019-04-13T19:12:08.023Z,5.80
2019-04-13T19:14:37.403Z,5.70
2019-04-13T19:17:06.777Z,5.60
2019-04-13T19:19:36.489Z,5.50
2019-04-13T19:22:06.186Z,5.40
2019-04-13T19:24:36.536Z,5.40
2019-04-13T19:27:06.453Z,5.30
2019-04-13T19:29:36.249Z,5.30
2019-04-13T19:32:06.580Z,5.20
2019-04-13T19:34:36.244Z,5.20
2019-04-13T19:37:06.273Z,5.20
2019-04-13T19:39:36.997Z,5.20
2019-04-13T19:42:06.451Z,5.10
2019-04-13T19:44:36.280Z,5.10
2019-04-13T19:47:06.504Z,5.10
2019-04-13T19:49:36.281Z,5.10
2019-04-13T19:52:11.515Z,5.10
2019-04-13T19:54:40.885Z,5.10
2019-04-13T19:57:10.274Z,5.10
2019-04-13T19:59:40.038Z,5.10
2019-04-13T20:02:09.651Z,5.10
2019-04-13T20:04:39.022Z,5.10
2019-04-13T20:07:08.407Z,5.10
2019-04-13T20:09:37.812Z,5.10
2019-04-13T20:12:07.166Z,5.10
2019-04-13T20:14:37.362Z,5.00
2019-04-13T20:17:06.797Z,5.00
2019-04-13T20:19:36.537Z,5.00
2019-04-13T20:22:06.730Z,5.00
2019-04-13T20:24:36.560Z,5.00
2019-04-13T20:27:06.795Z,4.90
2019-04-13T20:29:36.612Z,4.90
2019-04-13T20:32:06.633Z,5.00
2019-04-13T20:34:37.692Z,4.90
2019-04-13T20:37:08.549Z,4.90
2019-04-13T20:39:42.261Z,5.00
2019-04-13T20:42:16.951Z,4.90
2019-04-13T20:44:43.027Z,4.90
2019-04-13T20:47:13.407Z,4.90
2019-04-13T20:49:42.956Z,4.80
2019-04-13T20:52:12.273Z,4.80
2019-04-13T20:54:42.778Z,4.80
2019-04-13T20:57:13.031Z,4.80
2019-04-13T20:59:43.234Z,4.80
2019-04-13T21:02:13.369Z,4.70
2019-04-13T21:04:43.765Z,4.70
2019-04-13T21:07:13.793Z,4.70
2019-04-13T21:09:43.641Z,4.70
2019-04-13T21:12:14.271Z,4.70
2019-04-13T21:14:47.231Z,4.60
2019-04-13T21:17:15.645Z,4.60
2019-04-13T21:19:45.962Z,4.60
2019-04-13T21:22:15.939Z,4.60
2019-04-13T21:24:45.912Z,4.60
2019-04-13T21:27:15.999Z,4.50
2019-04-13T21:29:46.032Z,4.50
2019-04-13T21:32:18.107Z,4.50
2019-04-13T21:34:48.313Z,4.50
2019-04-13T21:37:18.383Z,4.40
2019-04-13T21:39:48.373Z,4.40
2019-04-13T21:42:17.719Z,4.30
2019-04-13T21:44:49.508Z,4.30
2019-04-13T21:47:18.418Z,4.30
2019-04-13T21:49:49.040Z,4.30
2019-04-13T21:52:38.770Z,4.30
2019-04-13T21:55:09.700Z,4.30
2019-04-13T21:57:39.385Z,4.30
2019-04-13T22:00:16.042Z,4.30
2019-04-13T22:02:46.415Z,4.30
2019-04-13T22:05:16.079Z,4.30
2019-04-13T22:07:46.123Z,4.30
2019-04-13T22:10:15.846Z,4.40
2019-04-13T22:12:45.993Z,4.40
2019-04-13T22:15:16.054Z,4.40
2019-04-13T22:17:46.558Z,4.40
2019-04-13T22:20:16.875Z,4.40
2019-04-13T22:22:46.816Z,4.40
2019-04-13T22:25:16.717Z,4.40
2019-04-13T22:27:55.699Z,4.50
2019-04-13T22:30:19.085Z,4.40
2019-04-13T22:32:49.785Z,4.40
2019-04-13T22:35:23.820Z,4.50
2019-04-13T22:37:53.780Z,4.50
2019-04-13T22:40:23.672Z,4.50
2019-04-13T22:42:54.451Z,4.50
2019-04-13T22:45:25.424Z,4.60
2019-04-13T22:47:56.535Z,4.60
2019-04-13T22:50:33.117Z,4.60
2019-04-13T22:53:04.148Z,4.60
2019-04-13T22:55:38.823Z,4.60
2019-04-13T22:58:09.444Z,4.60
2019-04-13T23:00:52.618Z,4.60
2019-04-13T23:03:22.287Z,4.60
2019-04-13T23:05:52.431Z,4.60
2019-04-13T23:08:22.772Z,4.60
2019-04-13T23:10:52.966Z,4.60
2019-04-13T23:13:23.276Z,4.60
2019-04-13T23:15:53.472Z,4.60
2019-04-13T23:18:23.240Z,4.60
2019-04-13T23:20:53.699Z,4.60
2019-04-13T23:23:24.402Z,4.50
2019-04-13T23:25:55.054Z,4.50
2019-04-13T23:28:24.983Z,4.50
2019-04-13T23:30:55.272Z,4.50
2019-04-13T23:33:25.599Z,4.50
2019-04-13T23:35:56.182Z,4.50
2019-04-13T23:38:26.658Z,4.50
2019-04-13T23:40:57.102Z,4.40
2019-04-13T23:43:26.471Z,4.50
2019-04-13T23:45:56.062Z,4.50
2019-04-13T23:48:26.457Z,4.50
2019-04-13T23:50:56.717Z,4.50
2019-04-13T23:53:27.231Z,4.50
2019-04-13T23:55:58.300Z,4.50
2019-04-13T23:58:36.267Z,4.50
